createdAt,value
2018-05-18T00:13:43.014Z,9.54
2018-05-18T00:34:17.328Z,9.28
2018-05-18T00:54:50.241Z,9.47
2018-05-18T01:15:29.793Z,9.09
2018-05-18T01:36:06.991Z,8.76
2018-05-18T01:56:47.115Z,8.69
2018-05-18T02:35:27.743Z,8.37
2018-05-18T02:56:02.697Z,8.24
2018-05-18T03:16:37.363Z,8.08
2018-05-18T03:37:11.716Z,7.94
2018-05-18T03:57:49.147Z,7.99
2018-05-18T04:18:23.178Z,7.99
2018-05-18T04:38:58.149Z,8.56
2018-05-18T04:59:31.575Z,9.42
2018-05-18T05:20:04.694Z,9.98
2018-05-18T05:40:38.123Z,10.35
2018-05-18T06:01:10.324Z,10.14
2018-05-18T06:21:47.436Z,10.36
2018-05-18T06:42:21.902Z,10.71
2018-05-18T07:02:57.292Z,11.21
2018-05-18T07:23:31.348Z,11.32
2018-05-18T07:44:05.454Z,11.89
2018-05-18T08:04:38.576Z,12.16
2018-05-18T08:25:15.692Z,12.30
2018-05-18T08:45:54.038Z,12.58
2018-05-18T09:06:28.656Z,12.95
2018-05-18T09:27:06.993Z,13.31
2018-05-18T09:47:43.010Z,13.66
2018-05-18T10:08:16.967Z,14.44
2018-05-18T10:28:52.237Z,14.57
2018-05-18T10:49:25.739Z,14.89
2018-05-18T11:09:58.488Z,15.21
2018-05-18T11:30:31.911Z,15.63
2018-05-18T11:51:07.187Z,16.07
2018-05-18T12:11:40.302Z,16.69
2018-05-18T12:32:12.742Z,16.98
2018-05-18T12:52:44.938Z,17.21
2018-05-18T13:13:18.750Z,17.78
2018-05-18T13:33:52.443Z,18.76
2018-05-18T13:54:24.376Z,19.71
2018-05-18T14:14:55.942Z,20.47
2018-05-18T14:53:27.375Z,21.35
2018-05-18T15:14:03.573Z,22.54
2018-05-18T15:34:38.842Z,21.52
2018-05-18T15:55:15.032Z,20.78
2018-05-18T16:15:47.237Z,20.51
2018-05-18T16:36:23.430Z,20.37
2018-05-18T16:56:58.014Z,20.73
2018-05-18T17:17:30.900Z,20.63
2018-05-18T17:38:04.446Z,18.99
2018-05-18T17:58:36.223Z,18.26
2018-05-18T18:19:10.574Z,17.73
2018-05-18T18:39:42.772Z,16.96
2018-05-18T19:00:19.317Z,16.21
2018-05-18T19:20:52.090Z,15.43
2018-05-18T19:41:29.508Z,14.82
2018-05-18T20:02:03.552Z,13.91
2018-05-18T20:22:36.988Z,13.38
2018-05-18T20:43:10.106Z,12.85
2018-05-18T21:03:43.225Z,12.28
2018-05-18T21:24:18.843Z,11.81
2018-05-18T21:44:52.861Z,11.52
2018-05-18T22:05:28.416Z,11.38
2018-05-18T22:26:04.309Z,11.29
2018-05-18T22:46:38.353Z,11.08
2018-05-18T23:07:12.700Z,10.83
2018-05-18T23:27:43.982Z,10.41
2018-05-18T23:48:18.336Z,9.98
